sensor_id;sensor_type;location;lat;lon;timestamp;P1;durP1;ratioP1;P2;durP2;ratioP2
74170;SDS011;62526;50.948;6.590;2023-08-08T00:01:06;8.32;;;2.78;;
74170;SDS011;62526;50.948;6.590;2023-08-08T00:03:33;7.60;;;2.80;;
74170;SDS011;62526;50.948;6.590;2023-08-08T00:05:59;5.20;;;2.42;;
74170;SDS011;62526;50.948;6.590;2023-08-08T00:08:26;4.20;;;2.25;;
74170;SDS011;62526;50.948;6.590;2023-08-08T00:10:52;4.28;;;2.72;;
74170;SDS011;62526;50.948;6.590;2023-08-08T00:13:19;4.20;;;2.75;;
74170;SDS011;62526;50.948;6.590;2023-08-08T00:15:46;3.67;;;2.47;;
74170;SDS011;62526;50.948;6.590;2023-08-08T00:18:13;5.03;;;2.35;;
74170;SDS011;62526;50.948;6.590;2023-08-08T00:20:39;5.95;;;2.30;;
74170;SDS011;62526;50.948;6.590;2023-08-08T00:23:06;4.68;;;2.20;;
74170;SDS011;62526;50.948;6.590;2023-08-08T00:25:33;4.68;;;2.37;;
74170;SDS011;62526;50.948;6.590;2023-08-08T00:27:59;2.60;;;2.30;;
74170;SDS011;62526;50.948;6.590;2023-08-08T00:30:26;3.80;;;2.58;;
74170;SDS011;62526;50.948;6.590;2023-08-08T00:32:53;3.25;;;2.30;;
74170;SDS011;62526;50.948;6.590;2023-08-08T00:35:19;4.60;;;2.35;;
74170;SDS011;62526;50.948;6.590;2023-08-08T00:37:46;3.35;;;2.30;;
74170;SDS011;62526;50.948;6.590;2023-08-08T00:40:12;4.72;;;1.92;;
74170;SDS011;62526;50.948;6.590;2023-08-08T00:42:39;3.37;;;2.20;;
74170;SDS011;62526;50.948;6.590;2023-08-08T00:45:06;3.25;;;2.47;;
74170;SDS011;62526;50.948;6.590;2023-08-08T00:47:33;4.85;;;2.50;;
74170;SDS011;62526;50.948;6.590;2023-08-08T00:50:01;2.47;;;2.00;;
74170;SDS011;62526;50.948;6.590;2023-08-08T00:52:27;4.75;;;2.42;;
74170;SDS011;62526;50.948;6.590;2023-08-08T00:54:54;2.70;;;1.92;;
74170;SDS011;62526;50.948;6.590;2023-08-08T00:57:20;7.20;;;2.45;;
74170;SDS011;62526;50.948;6.590;2023-08-08T00:59:47;4.43;;;2.33;;
74170;SDS011;62526;50.948;6.590;2023-08-08T01:02:13;3.83;;;2.37;;
74170;SDS011;62526;50.948;6.590;2023-08-08T01:04:40;4.53;;;2.28;;
74170;SDS011;62526;50.948;6.590;2023-08-08T01:10:01;3.15;;;1.87;;
74170;SDS011;62526;50.948;6.590;2023-08-08T01:12:28;3.12;;;2.42;;
74170;SDS011;62526;50.948;6.590;2023-08-08T01:14:55;5.62;;;2.37;;
74170;SDS011;62526;50.948;6.590;2023-08-08T01:17:22;3.20;;;2.45;;
74170;SDS011;62526;50.948;6.590;2023-08-08T01:19:48;3.50;;;2.15;;
74170;SDS011;62526;50.948;6.590;2023-08-08T01:22:19;3.55;;;2.30;;
74170;SDS011;62526;50.948;6.590;2023-08-08T01:24:42;3.53;;;2.05;;
74170;SDS011;62526;50.948;6.590;2023-08-08T01:27:10;3.65;;;2.03;;
74170;SDS011;62526;50.948;6.590;2023-08-08T01:29:37;4.12;;;2.97;;
74170;SDS011;62526;50.948;6.590;2023-08-08T01:32:04;2.72;;;2.33;;
74170;SDS011;62526;50.948;6.590;2023-08-08T01:34:32;3.70;;;2.53;;
74170;SDS011;62526;50.948;6.590;2023-08-08T01:36:59;3.95;;;2.15;;
74170;SDS011;62526;50.948;6.590;2023-08-08T01:39:26;5.07;;;2.30;;
74170;SDS011;62526;50.948;6.590;2023-08-08T01:41:54;3.05;;;2.17;;
74170;SDS011;62526;50.948;6.590;2023-08-08T01:44:20;5.78;;;2.47;;
74170;SDS011;62526;50.948;6.590;2023-08-08T01:46:46;5.53;;;2.25;;
74170;SDS011;62526;50.948;6.590;2023-08-08T01:49:13;7.10;;;2.33;;
74170;SDS011;62526;50.948;6.590;2023-08-08T01:54:14;6.53;;;2.55;;
74170;SDS011;62526;50.948;6.590;2023-08-08T01:56:41;10.00;;;2.75;;
74170;SDS011;62526;50.948;6.590;2023-08-08T01:59:08;4.87;;;2.25;;
74170;SDS011;62526;50.948;6.590;2023-08-08T02:01:36;2.95;;;2.10;;
74170;SDS011;62526;50.948;6.590;2023-08-08T02:04:03;5.35;;;2.60;;
74170;SDS011;62526;50.948;6.590;2023-08-08T02:06:29;4.25;;;2.40;;
74170;SDS011;62526;50.948;6.590;2023-08-08T02:08:56;4.07;;;2.30;;
74170;SDS011;62526;50.948;6.590;2023-08-08T02:11:22;5.40;;;2.60;;
74170;SDS011;62526;50.948;6.590;2023-08-08T02:13:49;2.25;;;1.70;;
74170;SDS011;62526;50.948;6.590;2023-08-08T02:16:16;4.23;;;2.03;;
74170;SDS011;62526;50.948;6.590;2023-08-08T02:18:42;6.25;;;2.22;;
74170;SDS011;62526;50.948;6.590;2023-08-08T02:21:09;3.95;;;2.58;;
74170;SDS011;62526;50.948;6.590;2023-08-08T02:23:36;3.45;;;1.90;;
74170;SDS011;62526;50.948;6.590;2023-08-08T02:26:03;3.75;;;2.33;;
74170;SDS011;62526;50.948;6.590;2023-08-08T02:28:29;3.03;;;1.70;;
74170;SDS011;62526;50.948;6.590;2023-08-08T02:30:56;7.75;;;2.30;;
74170;SDS011;62526;50.948;6.590;2023-08-08T02:33:22;2.78;;;1.95;;
74170;SDS011;62526;50.948;6.590;2023-08-08T02:35:50;4.03;;;2.30;;
74170;SDS011;62526;50.948;6.590;2023-08-08T02:38:16;4.05;;;2.20;;
74170;SDS011;62526;50.948;6.590;2023-08-08T02:40:43;6.82;;;2.15;;
74170;SDS011;62526;50.948;6.590;2023-08-08T02:43:10;5.12;;;2.20;;
74170;SDS011;62526;50.948;6.590;2023-08-08T02:45:37;4.62;;;2.05;;
74170;SDS011;62526;50.948;6.590;2023-08-08T02:48:04;4.60;;;2.08;;
74170;SDS011;62526;50.948;6.590;2023-08-08T02:50:31;4.45;;;2.35;;
74170;SDS011;62526;50.948;6.590;2023-08-08T02:52:57;2.33;;;2.08;;
74170;SDS011;62526;50.948;6.590;2023-08-08T02:55:24;2.95;;;1.95;;
74170;SDS011;62526;50.948;6.590;2023-08-08T02:57:50;3.20;;;2.08;;
74170;SDS011;62526;50.948;6.590;2023-08-08T03:00:17;4.50;;;2.17;;
74170;SDS011;62526;50.948;6.590;2023-08-08T03:02:44;2.65;;;1.80;;
74170;SDS011;62526;50.948;6.590;2023-08-08T03:05:10;3.20;;;2.23;;
74170;SDS011;62526;50.948;6.590;2023-08-08T03:07:37;3.85;;;2.40;;
74170;SDS011;62526;50.948;6.590;2023-08-08T03:10:04;3.43;;;2.20;;
74170;SDS011;62526;50.948;6.590;2023-08-08T03:12:31;3.97;;;2.03;;
74170;SDS011;62526;50.948;6.590;2023-08-08T03:14:58;4.45;;;2.10;;
74170;SDS011;62526;50.948;6.590;2023-08-08T03:17:24;6.37;;;2.00;;
74170;SDS011;62526;50.948;6.590;2023-08-08T03:19:51;4.60;;;2.53;;
74170;SDS011;62526;50.948;6.590;2023-08-08T03:22:18;2.75;;;2.10;;
74170;SDS011;62526;50.948;6.590;2023-08-08T03:24:44;3.30;;;1.53;;
74170;SDS011;62526;50.948;6.590;2023-08-08T03:27:11;3.85;;;2.00;;
74170;SDS011;62526;50.948;6.590;2023-08-08T03:29:38;5.87;;;2.28;;
74170;SDS011;62526;50.948;6.590;2023-08-08T03:32:05;6.13;;;2.23;;
74170;SDS011;62526;50.948;6.590;2023-08-08T03:34:32;3.87;;;2.20;;
74170;SDS011;62526;50.948;6.590;2023-08-08T03:36:59;3.50;;;2.20;;
74170;SDS011;62526;50.948;6.590;2023-08-08T03:39:25;9.63;;;1.95;;
74170;SDS011;62526;50.948;6.590;2023-08-08T03:41:52;7.20;;;2.10;;
74170;SDS011;62526;50.948;6.590;2023-08-08T03:44:20;6.40;;;2.47;;
74170;SDS011;62526;50.948;6.590;2023-08-08T03:46:47;7.87;;;2.50;;
74170;SDS011;62526;50.948;6.590;2023-08-08T03:49:14;8.07;;;2.50;;
74170;SDS011;62526;50.948;6.590;2023-08-08T03:51:46;6.47;;;2.80;;
74170;SDS011;62526;50.948;6.590;2023-08-08T03:54:13;5.70;;;2.58;;
74170;SDS011;62526;50.948;6.590;2023-08-08T03:56:41;4.22;;;2.15;;
74170;SDS011;62526;50.948;6.590;2023-08-08T03:59:08;9.83;;;2.50;;
74170;SDS011;62526;50.948;6.590;2023-08-08T04:01:35;6.33;;;2.80;;
74170;SDS011;62526;50.948;6.590;2023-08-08T04:04:02;4.43;;;2.23;;
74170;SDS011;62526;50.948;6.590;2023-08-08T04:06:29;5.72;;;3.37;;
74170;SDS011;62526;50.948;6.590;2023-08-08T04:08:56;9.70;;;2.60;;
74170;SDS011;62526;50.948;6.590;2023-08-08T04:11:22;10.70;;;2.80;;
74170;SDS011;62526;50.948;6.590;2023-08-08T04:13:49;9.13;;;2.85;;
74170;SDS011;62526;50.948;6.590;2023-08-08T04:16:17;7.30;;;2.93;;
74170;SDS011;62526;50.948;6.590;2023-08-08T04:18:43;5.62;;;2.45;;
74170;SDS011;62526;50.948;6.590;2023-08-08T04:21:11;10.23;;;3.92;;
74170;SDS011;62526;50.948;6.590;2023-08-08T04:23:37;5.62;;;2.62;;
74170;SDS011;62526;50.948;6.590;2023-08-08T04:26:04;5.82;;;2.45;;
74170;SDS011;62526;50.948;6.590;2023-08-08T04:28:30;7.07;;;2.90;;
74170;SDS011;62526;50.948;6.590;2023-08-08T04:30:57;7.10;;;2.50;;
74170;SDS011;62526;50.948;6.590;2023-08-08T04:33:25;20.37;;;3.47;;
74170;SDS011;62526;50.948;6.590;2023-08-08T04:35:51;6.70;;;2.78;;
74170;SDS011;62526;50.948;6.590;2023-08-08T04:38:18;4.93;;;2.78;;
74170;SDS011;62526;50.948;6.590;2023-08-08T04:40:44;7.30;;;3.22;;
74170;SDS011;62526;50.948;6.590;2023-08-08T04:43:12;5.70;;;2.33;;
74170;SDS011;62526;50.948;6.590;2023-08-08T04:45:39;8.23;;;3.20;;
74170;SDS011;62526;50.948;6.590;2023-08-08T04:48:05;6.33;;;2.63;;
74170;SDS011;62526;50.948;6.590;2023-08-08T04:50:32;8.60;;;3.05;;
74170;SDS011;62526;50.948;6.590;2023-08-08T04:52:59;10.75;;;3.28;;
74170;SDS011;62526;50.948;6.590;2023-08-08T04:55:25;12.82;;;3.10;;
74170;SDS011;62526;50.948;6.590;2023-08-08T04:57:53;5.37;;;3.03;;
74170;SDS011;62526;50.948;6.590;2023-08-08T05:00:20;9.63;;;2.85;;
74170;SDS011;62526;50.948;6.590;2023-08-08T05:02:47;13.93;;;3.42;;
74170;SDS011;62526;50.948;6.590;2023-08-08T05:05:13;11.75;;;3.50;;
74170;SDS011;62526;50.948;6.590;2023-08-08T05:07:40;4.53;;;2.40;;
74170;SDS011;62526;50.948;6.590;2023-08-08T05:10:07;8.05;;;3.20;;
74170;SDS011;62526;50.948;6.590;2023-08-08T05:12:33;4.12;;;2.42;;
74170;SDS011;62526;50.948;6.590;2023-08-08T05:15:00;4.30;;;3.25;;
74170;SDS011;62526;50.948;6.590;2023-08-08T05:17:29;8.38;;;3.17;;
74170;SDS011;62526;50.948;6.590;2023-08-08T05:19:54;11.43;;;3.20;;
74170;SDS011;62526;50.948;6.590;2023-08-08T05:22:20;8.10;;;2.90;;
74170;SDS011;62526;50.948;6.590;2023-08-08T05:24:48;6.57;;;2.95;;
74170;SDS011;62526;50.948;6.590;2023-08-08T05:27:14;8.63;;;2.97;;
74170;SDS011;62526;50.948;6.590;2023-08-08T05:29:41;8.30;;;3.37;;
74170;SDS011;62526;50.948;6.590;2023-08-08T05:32:08;11.00;;;3.08;;
74170;SDS011;62526;50.948;6.590;2023-08-08T05:34:34;4.15;;;2.58;;
74170;SDS011;62526;50.948;6.590;2023-08-08T05:37:01;7.40;;;2.75;;
74170;SDS011;62526;50.948;6.590;2023-08-08T05:39:27;12.93;;;3.62;;
74170;SDS011;62526;50.948;6.590;2023-08-08T05:41:54;12.15;;;3.25;;
74170;SDS011;62526;50.948;6.590;2023-08-08T05:44:21;9.82;;;3.08;;
74170;SDS011;62526;50.948;6.590;2023-08-08T05:46:47;12.63;;;3.12;;
74170;SDS011;62526;50.948;6.590;2023-08-08T05:49:14;11.05;;;3.28;;
74170;SDS011;62526;50.948;6.590;2023-08-08T05:51:41;6.05;;;3.20;;
74170;SDS011;62526;50.948;6.590;2023-08-08T05:54:07;5.80;;;2.70;;
74170;SDS011;62526;50.948;6.590;2023-08-08T05:56:34;10.15;;;2.67;;
74170;SDS011;62526;50.948;6.590;2023-08-08T05:59:00;5.62;;;2.80;;
74170;SDS011;62526;50.948;6.590;2023-08-08T06:01:27;5.62;;;3.12;;
74170;SDS011;62526;50.948;6.590;2023-08-08T06:03:54;10.50;;;3.12;;
74170;SDS011;62526;50.948;6.590;2023-08-08T06:06:20;6.82;;;3.20;;
74170;SDS011;62526;50.948;6.590;2023-08-08T06:08:47;11.80;;;3.05;;
74170;SDS011;62526;50.948;6.590;2023-08-08T06:11:13;6.30;;;2.80;;
74170;SDS011;62526;50.948;6.590;2023-08-08T06:13:40;8.18;;;2.40;;
74170;SDS011;62526;50.948;6.590;2023-08-08T06:16:07;9.98;;;2.62;;
74170;SDS011;62526;50.948;6.590;2023-08-08T06:18:34;5.12;;;2.15;;
74170;SDS011;62526;50.948;6.590;2023-08-08T06:21:01;8.48;;;2.70;;
74170;SDS011;62526;50.948;6.590;2023-08-08T06:23:28;5.82;;;2.37;;
74170;SDS011;62526;50.948;6.590;2023-08-08T06:25:55;5.90;;;2.17;;
74170;SDS011;62526;50.948;6.590;2023-08-08T06:28:22;7.05;;;2.47;;
74170;SDS011;62526;50.948;6.590;2023-08-08T06:30:48;3.12;;;2.00;;
74170;SDS011;62526;50.948;6.590;2023-08-08T06:33:15;8.05;;;2.50;;
74170;SDS011;62526;50.948;6.590;2023-08-08T06:35:41;7.97;;;2.85;;
74170;SDS011;62526;50.948;6.590;2023-08-08T06:38:09;7.10;;;3.05;;
74170;SDS011;62526;50.948;6.590;2023-08-08T06:40:36;7.93;;;2.47;;
74170;SDS011;62526;50.948;6.590;2023-08-08T06:43:03;5.80;;;2.42;;
74170;SDS011;62526;50.948;6.590;2023-08-08T06:45:30;6.47;;;2.58;;
74170;SDS011;62526;50.948;6.590;2023-08-08T06:47:56;7.45;;;2.80;;
74170;SDS011;62526;50.948;6.590;2023-08-08T06:50:23;7.80;;;2.80;;
74170;SDS011;62526;50.948;6.590;2023-08-08T06:55:30;8.98;;;2.72;;
74170;SDS011;62526;50.948;6.590;2023-08-08T06:57:56;6.68;;;2.80;;
74170;SDS011;62526;50.948;6.590;2023-08-08T07:00:24;5.35;;;2.17;;
74170;SDS011;62526;50.948;6.590;2023-08-08T07:02:50;8.25;;;2.62;;
74170;SDS011;62526;50.948;6.590;2023-08-08T07:05:18;6.47;;;2.97;;
74170;SDS011;62526;50.948;6.590;2023-08-08T07:07:44;2.85;;;2.28;;
74170;SDS011;62526;50.948;6.590;2023-08-08T07:10:11;7.87;;;2.70;;
74170;SDS011;62526;50.948;6.590;2023-08-08T07:12:38;8.05;;;2.55;;
74170;SDS011;62526;50.948;6.590;2023-08-08T07:15:06;12.05;;;2.83;;
74170;SDS011;62526;50.948;6.590;2023-08-08T07:17:33;10.90;;;3.35;;
74170;SDS011;62526;50.948;6.590;2023-08-08T07:19:59;6.43;;;2.50;;
74170;SDS011;62526;50.948;6.590;2023-08-08T07:22:26;4.65;;;2.58;;
74170;SDS011;62526;50.948;6.590;2023-08-08T07:24:53;6.93;;;2.70;;
74170;SDS011;62526;50.948;6.590;2023-08-08T07:27:19;11.23;;;2.80;;
74170;SDS011;62526;50.948;6.590;2023-08-08T07:29:46;10.05;;;3.00;;
74170;SDS011;62526;50.948;6.590;2023-08-08T07:32:13;6.30;;;2.50;;
74170;SDS011;62526;50.948;6.590;2023-08-08T07:34:39;8.02;;;3.22;;
74170;SDS011;62526;50.948;6.590;2023-08-08T07:37:06;8.57;;;3.05;;
74170;SDS011;62526;50.948;6.590;2023-08-08T07:39:32;9.88;;;3.00;;
74170;SDS011;62526;50.948;6.590;2023-08-08T07:42:00;8.07;;;3.40;;
74170;SDS011;62526;50.948;6.590;2023-08-08T07:44:26;6.40;;;3.08;;
74170;SDS011;62526;50.948;6.590;2023-08-08T07:46:54;10.75;;;3.33;;
74170;SDS011;62526;50.948;6.590;2023-08-08T07:49:21;14.00;;;3.95;;
74170;SDS011;62526;50.948;6.590;2023-08-08T07:51:47;9.52;;;3.78;;
74170;SDS011;62526;50.948;6.590;2023-08-08T07:54:14;6.45;;;2.75;;
74170;SDS011;62526;50.948;6.590;2023-08-08T07:56:40;5.20;;;2.53;;
74170;SDS011;62526;50.948;6.590;2023-08-08T07:59:07;7.40;;;3.80;;
74170;SDS011;62526;50.948;6.590;2023-08-08T08:01:34;4.68;;;3.10;;
74170;SDS011;62526;50.948;6.590;2023-08-08T08:04:01;10.02;;;3.30;;
74170;SDS011;62526;50.948;6.590;2023-08-08T08:06:28;6.85;;;3.30;;
74170;SDS011;62526;50.948;6.590;2023-08-08T08:08:54;8.35;;;3.45;;
74170;SDS011;62526;50.948;6.590;2023-08-08T08:11:21;10.05;;;3.45;;
74170;SDS011;62526;50.948;6.590;2023-08-08T08:13:48;9.32;;;3.85;;
74170;SDS011;62526;50.948;6.590;2023-08-08T08:16:14;7.53;;;3.20;;
74170;SDS011;62526;50.948;6.590;2023-08-08T08:18:41;14.40;;;3.70;;
74170;SDS011;62526;50.948;6.590;2023-08-08T08:21:09;7.65;;;3.05;;
74170;SDS011;62526;50.948;6.590;2023-08-08T08:23:35;7.22;;;3.22;;
74170;SDS011;62526;50.948;6.590;2023-08-08T08:26:02;9.55;;;4.07;;
74170;SDS011;62526;50.948;6.590;2023-08-08T08:28:28;3.80;;;2.58;;
74170;SDS011;62526;50.948;6.590;2023-08-08T08:30:56;5.15;;;2.80;;
74170;SDS011;62526;50.948;6.590;2023-08-08T08:33:23;19.67;;;3.30;;
74170;SDS011;62526;50.948;6.590;2023-08-08T08:35:50;9.43;;;3.10;;
74170;SDS011;62526;50.948;6.590;2023-08-08T08:38:17;5.05;;;2.92;;
74170;SDS011;62526;50.948;6.590;2023-08-08T08:40:44;8.75;;;3.45;;
74170;SDS011;62526;50.948;6.590;2023-08-08T08:43:10;8.63;;;2.97;;
74170;SDS011;62526;50.948;6.590;2023-08-08T08:45:37;7.85;;;3.05;;
74170;SDS011;62526;50.948;6.590;2023-08-08T08:48:04;8.93;;;2.80;;
74170;SDS011;62526;50.948;6.590;2023-08-08T08:50:31;10.25;;;3.33;;
74170;SDS011;62526;50.948;6.590;2023-08-08T08:52:58;11.48;;;3.65;;
74170;SDS011;62526;50.948;6.590;2023-08-08T08:55:25;3.05;;;1.73;;
74170;SDS011;62526;50.948;6.590;2023-08-08T08:57:51;7.78;;;2.87;;
74170;SDS011;62526;50.948;6.590;2023-08-08T09:00:18;7.22;;;2.78;;
74170;SDS011;62526;50.948;6.590;2023-08-08T09:02:44;4.80;;;2.70;;
74170;SDS011;62526;50.948;6.590;2023-08-08T09:05:11;9.60;;;2.92;;
74170;SDS011;62526;50.948;6.590;2023-08-08T09:07:39;10.15;;;2.47;;
74170;SDS011;62526;50.948;6.590;2023-08-08T09:10:05;3.12;;;2.42;;
74170;SDS011;62526;50.948;6.590;2023-08-08T09:12:33;10.90;;;3.03;;
74170;SDS011;62526;50.948;6.590;2023-08-08T09:15:01;5.78;;;2.35;;
74170;SDS011;62526;50.948;6.590;2023-08-08T09:17:27;3.33;;;2.20;;
74170;SDS011;62526;50.948;6.590;2023-08-08T09:19:53;6.90;;;2.67;;
74170;SDS011;62526;50.948;6.590;2023-08-08T09:22:20;5.72;;;2.53;;
74170;SDS011;62526;50.948;6.590;2023-08-08T09:24:46;8.43;;;2.67;;
74170;SDS011;62526;50.948;6.590;2023-08-08T09:27:13;3.45;;;2.30;;
74170;SDS011;62526;50.948;6.590;2023-08-08T09:29:40;3.87;;;2.08;;
74170;SDS011;62526;50.948;6.590;2023-08-08T09:32:06;5.85;;;2.50;;
74170;SDS011;62526;50.948;6.590;2023-08-08T09:34:33;2.20;;;1.77;;
74170;SDS011;62526;50.948;6.590;2023-08-08T09:37:00;8.40;;;2.70;;
74170;SDS011;62526;50.948;6.590;2023-08-08T09:39:28;6.00;;;2.53;;
74170;SDS011;62526;50.948;6.590;2023-08-08T09:41:55;5.28;;;2.35;;
74170;SDS011;62526;50.948;6.590;2023-08-08T09:44:23;5.80;;;2.40;;
74170;SDS011;62526;50.948;6.590;2023-08-08T09:46:50;5.85;;;2.35;;
74170;SDS011;62526;50.948;6.590;2023-08-08T09:49:18;7.07;;;2.87;;
74170;SDS011;62526;50.948;6.590;2023-08-08T09:51:47;5.60;;;2.35;;
74170;SDS011;62526;50.948;6.590;2023-08-08T09:54:13;4.47;;;2.37;;
74170;SDS011;62526;50.948;6.590;2023-08-08T09:56:40;6.87;;;2.03;;
74170;SDS011;62526;50.948;6.590;2023-08-08T09:59:07;6.35;;;2.80;;
74170;SDS011;62526;50.948;6.590;2023-08-08T10:01:35;5.72;;;2.40;;
74170;SDS011;62526;50.948;6.590;2023-08-08T10:04:01;4.03;;;2.55;;
74170;SDS011;62526;50.948;6.590;2023-08-08T10:06:28;3.75;;;2.35;;
74170;SDS011;62526;50.948;6.590;2023-08-08T10:08:55;11.23;;;2.67;;
74170;SDS011;62526;50.948;6.590;2023-08-08T10:11:22;2.40;;;1.95;;
74170;SDS011;62526;50.948;6.590;2023-08-08T10:13:49;6.07;;;2.58;;
74170;SDS011;62526;50.948;6.590;2023-08-08T10:16:16;3.55;;;1.90;;
74170;SDS011;62526;50.948;6.590;2023-08-08T10:18:44;6.05;;;2.22;;
74170;SDS011;62526;50.948;6.590;2023-08-08T10:21:13;6.22;;;2.50;;
74170;SDS011;62526;50.948;6.590;2023-08-08T10:23:39;3.17;;;1.87;;
74170;SDS011;62526;50.948;6.590;2023-08-08T10:26:17;2.50;;;1.90;;
74170;SDS011;62526;50.948;6.590;2023-08-08T10:28:33;6.62;;;2.25;;
74170;SDS011;62526;50.948;6.590;2023-08-08T10:31:00;4.55;;;1.90;;
74170;SDS011;62526;50.948;6.590;2023-08-08T10:33:26;4.40;;;1.50;;
74170;SDS011;62526;50.948;6.590;2023-08-08T10:35:56;3.58;;;1.90;;
74170;SDS011;62526;50.948;6.590;2023-08-08T10:38:24;3.67;;;1.77;;
74170;SDS011;62526;50.948;6.590;2023-08-08T10:40:55;8.20;;;2.17;;
74170;SDS011;62526;50.948;6.590;2023-08-08T10:43:25;7.55;;;2.33;;
74170;SDS011;62526;50.948;6.590;2023-08-08T10:45:51;6.93;;;2.92;;
74170;SDS011;62526;50.948;6.590;2023-08-08T10:48:18;3.80;;;1.95;;
74170;SDS011;62526;50.948;6.590;2023-08-08T10:50:44;2.70;;;1.52;;
74170;SDS011;62526;50.948;6.590;2023-08-08T10:53:11;6.28;;;2.20;;
74170;SDS011;62526;50.948;6.590;2023-08-08T10:55:38;6.32;;;2.37;;
74170;SDS011;62526;50.948;6.590;2023-08-08T10:58:06;6.53;;;2.22;;
74170;SDS011;62526;50.948;6.590;2023-08-08T11:00:32;3.20;;;1.90;;
74170;SDS011;62526;50.948;6.590;2023-08-08T11:02:59;2.67;;;1.90;;
74170;SDS011;62526;50.948;6.590;2023-08-08T11:05:28;2.87;;;1.77;;
74170;SDS011;62526;50.948;6.590;2023-08-08T11:07:54;8.25;;;2.08;;
74170;SDS011;62526;50.948;6.590;2023-08-08T11:10:20;5.82;;;2.28;;
74170;SDS011;62526;50.948;6.590;2023-08-08T11:13:03;4.62;;;2.17;;
74170;SDS011;62526;50.948;6.590;2023-08-08T11:15:28;3.33;;;1.87;;
74170;SDS011;62526;50.948;6.590;2023-08-08T11:17:55;4.10;;;2.00;;
74170;SDS011;62526;50.948;6.590;2023-08-08T11:20:23;9.10;;;2.17;;
74170;SDS011;62526;50.948;6.590;2023-08-08T11:22:54;2.83;;;1.77;;
74170;SDS011;62526;50.948;6.590;2023-08-08T11:25:21;4.72;;;1.95;;
74170;SDS011;62526;50.948;6.590;2023-08-08T11:27:49;5.70;;;2.37;;
74170;SDS011;62526;50.948;6.590;2023-08-08T11:30:14;4.03;;;1.90;;
74170;SDS011;62526;50.948;6.590;2023-08-08T11:32:41;6.45;;;2.20;;
74170;SDS011;62526;50.948;6.590;2023-08-08T11:35:08;11.00;;;3.20;;
74170;SDS011;62526;50.948;6.590;2023-08-08T11:37:35;3.87;;;2.00;;
74170;SDS011;62526;50.948;6.590;2023-08-08T11:40:02;6.03;;;2.22;;
74170;SDS011;62526;50.948;6.590;2023-08-08T11:42:29;7.37;;;2.10;;
74170;SDS011;62526;50.948;6.590;2023-08-08T11:44:56;3.25;;;1.73;;
74170;SDS011;62526;50.948;6.590;2023-08-08T11:47:24;5.03;;;2.05;;
74170;SDS011;62526;50.948;6.590;2023-08-08T11:49:51;4.90;;;1.73;;
74170;SDS011;62526;50.948;6.590;2023-08-08T11:52:18;8.98;;;1.80;;
74170;SDS011;62526;50.948;6.590;2023-08-08T11:54:44;7.15;;;1.98;;
74170;SDS011;62526;50.948;6.590;2023-08-08T11:57:10;3.03;;;1.60;;
74170;SDS011;62526;50.948;6.590;2023-08-08T11:59:39;3.37;;;1.50;;
74170;SDS011;62526;50.948;6.590;2023-08-08T12:02:05;4.95;;;1.92;;
74170;SDS011;62526;50.948;6.590;2023-08-08T12:04:32;3.65;;;1.95;;
74170;SDS011;62526;50.948;6.590;2023-08-08T12:07:00;2.60;;;1.52;;
74170;SDS011;62526;50.948;6.590;2023-08-08T12:09:31;6.72;;;2.35;;
74170;SDS011;62526;50.948;6.590;2023-08-08T12:12:00;8.45;;;1.90;;
74170;SDS011;62526;50.948;6.590;2023-08-08T12:14:26;2.58;;;1.65;;
74170;SDS011;62526;50.948;6.590;2023-08-08T12:16:54;3.87;;;2.28;;
74170;SDS011;62526;50.948;6.590;2023-08-08T12:19:23;5.93;;;2.03;;
74170;SDS011;62526;50.948;6.590;2023-08-08T12:21:49;4.45;;;1.77;;
74170;SDS011;62526;50.948;6.590;2023-08-08T12:24:15;3.65;;;1.77;;
74170;SDS011;62526;50.948;6.590;2023-08-08T12:26:42;7.00;;;1.98;;
74170;SDS011;62526;50.948;6.590;2023-08-08T12:29:10;14.80;;;1.95;;
74170;SDS011;62526;50.948;6.590;2023-08-08T12:31:36;3.12;;;1.77;;
74170;SDS011;62526;50.948;6.590;2023-08-08T12:34:03;3.50;;;1.45;;
74170;SDS011;62526;50.948;6.590;2023-08-08T12:36:31;4.22;;;1.75;;
74170;SDS011;62526;50.948;6.590;2023-08-08T12:38:57;2.37;;;1.33;;
74170;SDS011;62526;50.948;6.590;2023-08-08T12:41:24;6.45;;;2.00;;
74170;SDS011;62526;50.948;6.590;2023-08-08T12:43:51;8.82;;;2.60;;
74170;SDS011;62526;50.948;6.590;2023-08-08T12:46:17;2.25;;;1.50;;
74170;SDS011;62526;50.948;6.590;2023-08-08T12:48:44;4.10;;;1.70;;
74170;SDS011;62526;50.948;6.590;2023-08-08T12:51:10;4.35;;;1.80;;
74170;SDS011;62526;50.948;6.590;2023-08-08T12:53:37;7.40;;;1.98;;
74170;SDS011;62526;50.948;6.590;2023-08-08T12:56:04;4.47;;;1.83;;
74170;SDS011;62526;50.948;6.590;2023-08-08T12:58:30;7.10;;;2.47;;
74170;SDS011;62526;50.948;6.590;2023-08-08T13:00:57;6.70;;;2.37;;
74170;SDS011;62526;50.948;6.590;2023-08-08T13:03:23;3.55;;;1.45;;
74170;SDS011;62526;50.948;6.590;2023-08-08T13:05:50;3.97;;;1.92;;
74170;SDS011;62526;50.948;6.590;2023-08-08T13:08:17;5.93;;;1.85;;
74170;SDS011;62526;50.948;6.590;2023-08-08T13:10:44;6.80;;;1.90;;
74170;SDS011;62526;50.948;6.590;2023-08-08T13:13:10;5.70;;;1.70;;
74170;SDS011;62526;50.948;6.590;2023-08-08T13:15:37;5.82;;;1.95;;
74170;SDS011;62526;50.948;6.590;2023-08-08T13:18:04;6.60;;;1.90;;
74170;SDS011;62526;50.948;6.590;2023-08-08T13:20:31;5.43;;;1.73;;
74170;SDS011;62526;50.948;6.590;2023-08-08T13:22:57;9.27;;;2.20;;
74170;SDS011;62526;50.948;6.590;2023-08-08T13:25:24;9.68;;;1.87;;
74170;SDS011;62526;50.948;6.590;2023-08-08T13:27:51;3.20;;;1.90;;
74170;SDS011;62526;50.948;6.590;2023-08-08T13:30:17;4.65;;;2.00;;
74170;SDS011;62526;50.948;6.590;2023-08-08T13:32:44;3.25;;;1.95;;
74170;SDS011;62526;50.948;6.590;2023-08-08T13:35:11;5.80;;;1.77;;
74170;SDS011;62526;50.948;6.590;2023-08-08T13:37:37;3.60;;;1.83;;
74170;SDS011;62526;50.948;6.590;2023-08-08T13:40:04;4.47;;;1.85;;
74170;SDS011;62526;50.948;6.590;2023-08-08T13:42:31;2.25;;;1.87;;
74170;SDS011;62526;50.948;6.590;2023-08-08T13:44:58;4.62;;;1.67;;
74170;SDS011;62526;50.948;6.590;2023-08-08T13:47:24;2.50;;;1.65;;
74170;SDS011;62526;50.948;6.590;2023-08-08T13:49:51;5.05;;;2.10;;
74170;SDS011;62526;50.948;6.590;2023-08-08T13:52:18;1.90;;;1.70;;
74170;SDS011;62526;50.948;6.590;2023-08-08T13:54:44;2.05;;;1.60;;
74170;SDS011;62526;50.948;6.590;2023-08-08T13:57:11;3.28;;;1.62;;
74170;SDS011;62526;50.948;6.590;2023-08-08T13:59:37;5.62;;;2.12;;
74170;SDS011;62526;50.948;6.590;2023-08-08T14:02:05;1.67;;;1.23;;
74170;SDS011;62526;50.948;6.590;2023-08-08T14:04:31;4.07;;;1.73;;
74170;SDS011;62526;50.948;6.590;2023-08-08T14:06:58;6.28;;;1.90;;
74170;SDS011;62526;50.948;6.590;2023-08-08T14:09:24;7.78;;;2.50;;
74170;SDS011;62526;50.948;6.590;2023-08-08T14:11:51;4.68;;;1.90;;
74170;SDS011;62526;50.948;6.590;2023-08-08T14:14:18;5.07;;;1.70;;
74170;SDS011;62526;50.948;6.590;2023-08-08T14:16:46;4.43;;;1.70;;
74170;SDS011;62526;50.948;6.590;2023-08-08T14:19:12;3.55;;;1.75;;
74170;SDS011;62526;50.948;6.590;2023-08-08T14:21:39;3.17;;;1.90;;
74170;SDS011;62526;50.948;6.590;2023-08-08T14:24:05;4.00;;;1.60;;
74170;SDS011;62526;50.948;6.590;2023-08-08T14:26:32;5.55;;;1.85;;
74170;SDS011;62526;50.948;6.590;2023-08-08T14:28:59;3.70;;;1.67;;
74170;SDS011;62526;50.948;6.590;2023-08-08T14:31:26;3.78;;;1.55;;
74170;SDS011;62526;50.948;6.590;2023-08-08T14:33:52;3.83;;;1.70;;
74170;SDS011;62526;50.948;6.590;2023-08-08T14:36:19;3.10;;;1.40;;
74170;SDS011;62526;50.948;6.590;2023-08-08T14:38:45;6.22;;;2.35;;
74170;SDS011;62526;50.948;6.590;2023-08-08T14:41:12;4.25;;;1.50;;
74170;SDS011;62526;50.948;6.590;2023-08-08T14:43:39;2.28;;;1.70;;
74170;SDS011;62526;50.948;6.590;2023-08-08T14:46:05;3.95;;;2.30;;
74170;SDS011;62526;50.948;6.590;2023-08-08T14:48:32;3.83;;;1.50;;
74170;SDS011;62526;50.948;6.590;2023-08-08T14:53:36;3.83;;;1.90;;